Latest Coastal Weather Observations for Weipa

IDQ60701

Issued at 2:42 am EST Friday 5 March 2021 (issued every 10 minutes, with the page automatically refreshed every 10 minutes)

About coastal observations | Map of coastal stations | Coastal observations for QLD | Marine services | Other Formats
Station Details ID: 027045 Name: WEIPA AERO Lat: -12.68 Lon: 141.92 Height: 17.96 m
Data from the previous 72 hours. | See also: Recent months at Weipa
Date/Time
EST
Wind Sea
Height
m
Swell Vis
km
Cloud Weather Temp
°C
Press
MSL
hPa
Rain since
9am
mm
Dir  Spd
kts
Gust
kts
Height
m
Period
s
Dir
05/02:30am NNW 4 6 - - - - 10 Partly cloudy - 25.4 1006.1 0.0
05/02:00am NNW 4 4 - - - - 10 - - 25.3 1006.1 0.0
05/01:30am NNW 4 5 - - - - 10 - - 25.6 1006.3 0.0
05/01:00am NNW 4 5 - - - - 10 - - 25.5 1006.4 0.0
05/12:30am NNW 5 6 - - - - 10 - - 25.8 1006.6 0.0
05/12:00am NW 5 7 - - - - 10 Mostly cloudy - 26.0 1006.7 0.0
 
Date/Time
EST
Wind Sea
Height
m
Swell Vis
km
Cloud Weather Temp
°C
Press
MSL
hPa
Rain since
9am
mm
Dir  Spd
kts
Gust
kts
Height
m
Period
s
Dir
04/11:30pm NW 6 8 - - - - 10 - - 26.4 1006.9 0.0
04/11:00pm NW 9 11 - - - - 10 - - 26.9 1007.1 0.0
04/10:30pm NW 9 12 - - - - 10 Partly cloudy - 27.2 1007.3 0.0
04/10:00pm NW 9 14 - - - - 10 Partly cloudy - 27.4 1007.0 0.0
04/09:30pm NW 11 18 - - - - 10 - - 27.4 1006.6 0.0
04/09:00pm NW 10 14 - - - - 10 Cloudy - 27.5 1006.4 0.0
04/08:30pm NW 8 10 - - - - 10 Partly cloudy - 27.0 1006.7 0.0
04/08:00pm NNW 7 9 - - - - 10 - - 26.9 1006.5 0.0
04/07:30pm NW 7 8 - - - - 10 - - 27.0 1006.2 0.0
04/07:00pm NW 6 9 - - - - 10 - - 27.5 1006.2 0.0
04/06:30pm NW 9 13 - - - - 10 - - 28.3 1005.9 0.0
04/06:00pm WNW 8 13 - - - - 10 Mostly clear - 29.2 1005.5 0.0
04/05:30pm NW 11 15 - - - - 10 Partly cloudy - 29.3 1005.2 0.0
04/05:00pm NW 11 15 - - - - 10 Partly cloudy - 29.5 1005.0 0.0
04/04:30pm NW 11 17 - - - - 10 Partly cloudy - 30.2 1004.9 0.0
04/04:00pm WNW 11 16 - - - - 10 - - 29.7 1004.9 0.0
04/03:30pm WNW 10 16 - - - - 10 - - 30.0 1004.8 0.0
04/03:00pm WNW 7 11 - - - - 10 Mostly cloudy - 29.9 1004.7 0.0
04/02:30pm WNW 9 14 - - - - 10 - - 30.0 1004.8 0.0
04/02:00pm WNW 8 12 - - - - 10 - - 29.7 1005.0 0.0
04/01:30pm NW 9 13 - - - - 10 Partly cloudy - 28.9 1005.3 0.0
04/01:00pm NW 10 14 - - - - 10 Partly cloudy - 29.0 1005.9 0.0
04/12:30pm NW 10 14 - - - - 10 Partly cloudy - 28.9 1006.6 0.0
04/12:00pm NW 12 16 - - - - 10 Mostly cloudy - 28.6 1006.8 0.0
04/11:30am NW 12 19 - - - - 10 Partly cloudy - 29.5 1007.4 0.0
04/11:00am NW 8 11 - - - - 10 Partly cloudy - 28.2 1007.8 0.0
04/10:30am N 5 7 - - - - 10 Partly cloudy - 27.0 1008.0 0.0
04/10:00am NNW 7 11 - - - - 10 Partly cloudy - 26.6 1008.0 0.0
04/09:30am NW 6 8 - - - - 10 Partly cloudy - 26.0 1008.2 0.0
04/09:00am NNW 4 5 - - - - 10 Mostly cloudy - 25.3 1008.1 87.0
04/08:30am NNW 6 8 - - - - 10 Partly cloudy - 24.7 1007.6 87.0
04/08:00am NNW 7 10 - - - - 10 Partly cloudy - 24.1 1007.3 87.0
04/07:30am NNW 7 9 - - - - 10 - - 23.9 1007.2 87.0
04/07:00am N 7 9 - - - - 10 Partly cloudy - 23.8 1007.0 87.0
04/06:30am NNW 12 17 - - - - 10 Partly cloudy - 24.1 1006.4 86.6
04/06:00am NW 10 16 - - - - 10 Cloudy Showers 24.2 1006.7 86.4
04/05:31am NW 12 19 - - - - 10 Partly cloudy - 24.2 1005.6 86.4
04/05:30am NW 12 19 - - - - 10 Partly cloudy - 24.2 1005.6 86.4
04/05:12am NW 7 10 - - - - 5 Partly cloudy - 24.2 1006.2 86.0
04/05:08am NW 6 9 - - - - 6 Partly cloudy - 24.3 1006.2 85.6
04/05:00am NW 9 13 - - - - 10 Partly cloudy - 24.4 1006.3 85.4
04/04:30am NNW 9 14 - - - - 10 Partly cloudy - 24.0 1005.5 85.2
04/04:00am NW 8 12 - - - - 10 Partly cloudy - 23.9 1005.1 85.0
04/03:52am NNW 6 10 - - - - 10 Partly cloudy - 24.1 1005.1 85.0
04/03:30am N 8 11 - - - - 10 Partly cloudy - 23.9 1004.3 85.0
04/03:00am N 11 17 - - - - 10 Mostly cloudy Rain 23.7 1004.7 85.0
04/02:30am W 8 19 - - - - 10 Partly cloudy - 23.1 1005.1 85.0
04/02:00am N 6 9 - - - - 10 Partly cloudy - 23.0 1005.8 84.4
04/01:30am NNE 7 9 - - - - 10 Partly cloudy - 22.8 1005.8 84.2
04/01:00am NE 7 9 - - - - 10 Partly cloudy - 22.9 1006.0 83.8
04/12:30am E 7 10 - - - - 10 Partly cloudy - 22.8 1006.4 83.8
04/12:00am NE 5 6 - - - - 10 Cloudy Rain 22.9 1006.4 83.6
 
Date/Time
EST
Wind Sea
Height
m
Swell Vis
km
Cloud Weather Temp
°C
Press
MSL
hPa
Rain since
9am
mm
Dir  Spd
kts
Gust
kts
Height
m
Period
s
Dir
03/11:30pm NNW 6 8 - - - - 10 Partly cloudy - 22.7 1006.7 83.6
03/11:00pm NE 4 5 - - - - 10 Cloudy - 22.8 1007.1 83.6
03/10:30pm NNE 4 5 - - - - 10 Cloudy - 22.7 1007.0 83.6
03/10:00pm NE 4 5 - - - - 10 Partly cloudy - 22.7 1006.8 83.6
03/09:30pm N 5 6 - - - - 10 Partly cloudy - 22.6 1006.2 83.6
03/09:00pm NNE 6 7 - - - - 10 Cloudy - 22.7 1005.8 83.6
03/08:30pm NNW 7 9 - - - - 10 Partly cloudy - 22.7 1005.7 83.6
03/08:00pm N 4 5 - - - - 10 - - 22.6 1005.5 83.6
03/07:30pm NNW 4 6 - - - - 10 - - 22.3 1005.4 83.4
03/07:00pm N 6 8 - - - - 10 Partly cloudy - 22.1 1005.0 83.4
03/06:30pm NNW 5 7 - - - - 10 Partly cloudy - 21.9 1005.5 82.0
03/06:10pm N 7 8 - - - - 10 Partly cloudy - 21.9 1005.8 80.4
03/06:00pm NNE 3 7 - - - - 6 Mostly cloudy Rain 21.8 1006.0 79.4
03/05:42pm CALM 0 0 - - - - 6 Partly cloudy - 21.9 1005.8 77.0
03/05:30pm ESE 3 5 - - - - 10 Cloudy - 22.0 1005.5 75.8
03/05:00pm SSW 4 7 - - - - 10 Partly cloudy - 21.6 1004.6 74.6
03/04:52pm SSW 3 5 - - - - 10 Partly cloudy - 21.3 1004.6 74.2
03/04:42pm SSE 5 7 - - - - 10 Partly cloudy - 21.2 1005.1 73.8
03/04:30pm SSE 8 11 - - - - 6 Partly cloudy - 21.2 1005.4 73.4
03/04:13pm SE 9 14 - - - - 3 Partly cloudy - 21.4 1005.6 70.8
03/04:00pm ESE 11 19 - - - - 4 Partly cloudy - 22.0 1005.2 66.8
03/03:40pm SE 8 18 - - - - 3 Partly cloudy - 23.4 1005.6 60.8
03/03:35pm ESE 13 28 - - - - 6 Partly cloudy - 24.1 1005.1 59.2
03/03:30pm NNW 16 28 - - - - 10 Partly cloudy - 25.1 1004.7 58.8
03/03:28pm NW 15 28 - - - - 10 Partly cloudy - 27.0 1003.2 58.8
03/03:27pm NW 15 28 - - - - 10 Partly cloudy - 26.5 1002.7 58.8
03/03:04pm NNW 9 19 - - - - 2 Partly cloudy - 24.2 1003.0 56.8
03/03:00pm N 8 15 - - - - 1 Cloudy Thunderstorm 23.8 1003.1 55.0
03/02:56pm WNW 7 13 - - - - 1 Partly cloudy - 23.8 1003.6 52.2
03/02:47pm W 10 16 - - - - 1 Partly cloudy - 23.3 1003.6 46.8
03/02:33pm WNW 10 22 - - - - 0.5 Partly cloudy - 25.2 1003.4 36.8
03/02:30pm SSW 7 22 - - - - 0.6 Partly cloudy - 25.1 1003.6 33.8
03/02:22pm ESE 11 15 - - - - 3 Partly cloudy - 24.8 1004.0 20.6
03/02:14pm E 8 15 - - - - 1 Partly cloudy - 24.8 1003.0 18.4
03/02:08pm ENE 5 7 - - - - 5 Cloudy - 24.8 1003.8 12.4
03/02:02pm ENE 5 8 - - - - 10 Cloudy - 25.1 1003.5 10.4
03/02:00pm E 6 8 - - - - 10 Cloudy - 25.0 1003.6 10.4
03/01:57pm E 7 8 - - - - 10 Cloudy - 25.1 1003.5 10.4
03/01:47pm ESE 7 9 - - - - 10 Partly cloudy - 25.6 1003.7 10.2
03/01:33pm SE 7 15 - - - - 10 Partly cloudy - 26.1 1004.0 10.2
03/01:30pm SE 8 15 - - - - 10 Partly cloudy - 26.1 1004.1 10.0
03/01:23pm SE 9 15 - - - - 10 Partly cloudy - 26.3 1004.2 10.0
03/01:19pm SSE 8 15 - - - - 10 Partly cloudy - 26.8 1004.3 10.0
03/01:00pm ESE 4 6 - - - - 10 Partly cloudy - 26.5 1005.0 9.6
03/12:59pm E 4 6 - - - - 10 Partly cloudy - 26.5 1005.1 9.6
03/12:57pm E 4 6 - - - - 10 Partly cloudy - 26.6 1005.1 9.6
03/12:46pm NE 9 13 - - - - 3 Partly cloudy - 26.9 1005.5 9.4
03/12:30pm W 7 16 - - - - 6 Partly cloudy - 27.6 1005.5 3.0
03/12:15pm W 7 9 - - - - 10 Partly cloudy - 28.1 1005.7 1.6
03/12:00pm W 6 10 - - - - 10 Cloudy Rain 28.0 1005.8 1.2
03/11:42am WSW 6 8 - - - - 10 Partly cloudy - 28.1 1006.2 0.4
03/11:30am WSW 7 10 - - - - 10 Partly cloudy - 28.2 1006.6 0.2
03/11:00am W 8 12 - - - - 10 Partly cloudy - 28.4 1006.1 0.0
03/10:36am W 10 18 - - - - 10 Partly cloudy - 28.6 1005.8 0.0
03/10:30am W 10 16 - - - - 10 Partly cloudy - 28.7 1006.1 0.0
03/10:01am W 11 17 - - - - 10 Partly cloudy - 28.9 1006.3 0.0
03/10:00am W 11 17 - - - - 10 Partly cloudy - 28.8 1006.3 0.0
03/09:30am WNW 12 18 - - - - 10 Partly cloudy - 28.8 1006.6 0.0
03/09:00am WNW 10 15 - - - - 10 Mostly cloudy Thunderstorm 28.5 1006.6 76.0
03/08:30am WNW 10 16 - - - - 10 Partly cloudy - 28.4 1006.4 76.0
03/08:29am WNW 10 16 - - - - 10 Partly cloudy - 28.4 1006.4 76.0
03/08:19am WNW 9 15 - - - - 10 Partly cloudy - 28.4 1006.4 76.0
03/08:17am WNW 9 15 - - - - 10 Partly cloudy - 28.3 1006.4 76.0
03/08:00am WNW 10 15 - - - - 10 Cloudy - 28.4 1006.2 76.0
03/07:45am WNW 10 17 - - - - 10 Partly cloudy - 28.5 1006.0 76.0
03/07:35am W 10 17 - - - - 10 Partly cloudy - 28.4 1005.8 76.0
03/07:30am WNW 10 17 - - - - 10 Partly cloudy - 28.4 1005.7 76.0
03/07:21am WNW 9 15 - - - - 10 Partly cloudy - 28.3 1005.9 76.0
03/07:11am WNW 10 14 - - - - 10 Partly cloudy - 28.4 1005.8 76.0
03/07:00am WNW 10 15 - - - - 10 Partly cloudy - 28.3 1005.6 76.0
03/06:30am WNW 10 16 - - - - 10 Partly cloudy - 28.2 1005.3 76.0
03/06:00am WNW 10 16 - - - - 10 Cloudy - 28.2 1005.1 76.0
03/05:30am WNW 10 15 - - - - 10 Partly cloudy - 28.2 1004.9 76.0
03/05:00am WNW 9 15 - - - - 10 Partly cloudy - 28.1 1005.0 76.0
03/04:30am WNW 9 14 - - - - 10 Cloudy - 28.1 1004.8 76.0
03/04:00am WNW 8 12 - - - - 10 Cloudy - 28.1 1005.1 76.0
03/03:30am W 8 13 - - - - 10 Partly cloudy - 28.0 1004.8 76.0
03/03:00am WNW 8 11 - - - - 10 Cloudy - 27.9 1004.8 76.0
03/02:30am WNW 11 15 - - - - 10 Partly cloudy - 28.1 1005.1 76.0
03/02:00am WNW 10 17 - - - - 10 Partly cloudy - 28.1 1005.3 76.0
03/01:30am WNW 10 14 - - - - 10 Partly cloudy - 28.0 1005.2 76.0
03/01:00am WNW 8 15 - - - - 10 Partly cloudy - 28.0 1005.6 76.0
03/12:30am WNW 9 15 - - - - 10 Partly cloudy - 28.0 1005.9 76.0
03/12:00am WNW 7 11 - - - - 10 Mostly cloudy - 27.7 1006.1 76.0
 
Date/Time
EST
Wind Sea
Height
m
Swell Vis
km
Cloud Weather Temp
°C
Press
MSL
hPa
Rain since
9am
mm
Dir  Spd
kts
Gust
kts
Height
m
Period
s
Dir
02/11:43pm WNW 6 9 - - - - 10 Partly cloudy - 27.3 1006.2 76.0
02/11:30pm NNW 3 6 - - - - 10 Partly cloudy - 25.1 1006.2 76.0
02/11:00pm NNW 3 4 - - - - 10 Partly cloudy - 24.7 1006.2 76.0
02/10:30pm NNW 4 5 - - - - 10 Partly cloudy - 24.4 1006.0 76.0
02/10:00pm NNW 4 6 - - - - 10 Partly cloudy - 24.2 1006.1 76.0
02/09:30pm NNW 4 5 - - - - 10 Partly cloudy - 24.0 1006.0 76.0
02/09:00pm N 5 6 - - - - 10 Cloudy - 23.7 1005.9 76.0
02/08:30pm NNW 4 5 - - - - 10 Partly cloudy - 23.4 1005.6 76.0
02/08:00pm CALM 0 0 - - - - 10 - - 23.0 1005.2 76.0
02/07:30pm CALM 0 0 - - - - 10 - - 23.0 1004.8 76.0
02/07:00pm WNW 1 3 - - - - 10 - - 23.2 1004.6 76.0
02/06:30pm NW 5 7 - - - - 10 - - 23.5 1004.5 76.0
02/06:00pm NNW 6 8 - - - - 10 Cloudy Rain 23.5 1004.7 76.0
02/05:30pm NW 6 8 - - - - 10 Partly cloudy - 23.3 1004.7 76.0
02/05:00pm SE 4 6 - - - - 10 Partly cloudy - 22.8 1004.6 76.0
02/04:44pm NW 5 5 - - - - 10 Partly cloudy - 22.3 1004.8 75.6
02/04:30pm NW 8 11 - - - - 5 Partly cloudy - 22.3 1004.8 75.4
02/04:27pm WNW 8 11 - - - - 5 Partly cloudy - 22.3 1005.1 75.2
02/04:04pm SW 10 18 - - - - 3 Partly cloudy - 22.4 1005.9 71.2
02/04:03pm SW 10 18 - - - - 3 Partly cloudy - 22.4 1005.9 71.0
02/04:00pm SW 10 18 - - - - 5 Partly cloudy - 22.5 1006.0 70.0
02/03:39pm SSW 8 16 - - - - 5 Partly cloudy - 22.7 1005.8 66.0
02/03:32pm SSW 7 11 - - - - 10 Partly cloudy - 22.8 1005.7 64.0
02/03:31pm SSW 7 11 - - - - 10 Partly cloudy - 22.8 1005.7 64.0
02/03:30pm SSW 7 11 - - - - 10 Partly cloudy - 22.8 1005.6 64.0
02/03:07pm WSW 5 8 - - - - 8 Partly cloudy - 22.6 1005.7 62.4
02/03:00pm SW 6 9 - - - - 4 Cloudy Thunderstorm 22.6 1005.9 62.2
02/02:50pm SSW 7 10 - - - - 6 Partly cloudy - 22.5 1005.9 60.0
02/02:30pm S 12 18 - - - - 0.9 Partly cloudy - 22.7 1006.8 53.6
02/02:13pm SSE 16 29 - - - - 0.9 Partly cloudy - 23.2 1006.2 34.6
02/02:09pm SE 18 31 - - - - 2 Partly cloudy - 23.6 1006.3 27.4
02/02:07pm SE 17 31 - - - - 4 Partly cloudy - 24.0 1005.6 24.2
02/02:02pm SE 13 24 - - - - 6 Partly cloudy - 24.1 1005.5 23.0
02/02:00pm SE 12 20 - - - - 10 Partly cloudy - 24.3 1006.0 22.4
02/01:41pm ENE 11 17 - - - - 10 Cloudy - 24.3 1004.8 21.0
02/01:30pm E 10 17 - - - - 10 Partly cloudy - 23.9 1005.0 20.8
02/01:04pm SE 12 21 - - - - 10 Partly cloudy - 24.7 1005.3 20.4
02/01:00pm ESE 14 21 - - - - 10 Partly cloudy - 24.5 1005.2 20.4
02/12:52pm SE 9 16 - - - - 10 Partly cloudy - 24.3 1005.6 20.4
02/12:30pm N 6 9 - - - - 8 Partly cloudy - 24.0 1005.9 18.6
02/12:23pm NE 7 13 - - - - 6 Partly cloudy - 24.1 1006.4 18.0
02/12:10pm SE 8 13 - - - - 10 Partly cloudy - 24.2 1006.3 16.8
02/12:00pm NE 14 25 - - - - 5 Cloudy Thunderstorm 24.2 1005.6 16.6
02/11:58am NNE 13 25 - - - - 3 Partly cloudy - 24.0 1005.3 16.6
02/11:30am SE 14 25 - - - - 6 Partly cloudy - 24.4 1005.5 3.6
02/11:27am SE 16 26 - - - - 4 Partly cloudy - 24.5 1006.4 3.4
02/11:10am SW 10 27 - - - - 6 Partly cloudy - 26.3 1006.0 1.2
02/11:08am WSW 9 15 - - - - 10 Partly cloudy - 26.8 1006.4 0.6
02/11:00am NW 7 10 - - - - 10 Partly cloudy - 28.1 1006.1 0.4
02/10:30am W 9 16 - - - - 10 Cloudy - 28.3 1006.4 0.0
02/10:14am WNW 9 13 - - - - 10 Partly cloudy - 28.3 1006.6 0.0
02/10:06am NW 5 12 - - - - 10 Cloudy - 27.7 1006.6 0.0
02/10:00am NW 3 5 - - - - 10 Partly cloudy - 26.3 1006.6 0.0
02/09:56am NW 2 5 - - - - 10 Partly cloudy - 26.2 1006.6 0.0
02/09:48am NW 3 4 - - - - 10 Partly cloudy - 26.0 1006.9 0.0
02/09:38am W 4 5 - - - - 10 Partly cloudy - 25.8 1006.8 0.0
02/09:30am W 5 6 - - - - 10 Partly cloudy - 25.6 1006.8 0.0
02/09:00am WNW 3 4 - - - - 10 Cloudy Thunderstorm 24.4 1006.9 30.6
02/08:30am NW 4 6 - - - - 10 Partly cloudy - 23.2 1006.7 30.6
02/08:00am N 5 8 - - - - 10 Partly cloudy - 22.6 1006.8 30.4
02/07:36am WNW 1 3 - - - - 10 Partly cloudy - 22.3 1006.8 29.8
02/07:30am NW 4 9 - - - - 10 Partly cloudy - 22.4 1006.6 29.8
02/07:22am WNW 6 9 - - - - 10 Partly cloudy - 22.3 1006.7 29.6
02/07:00am W 12 19 - - - - 1 Partly cloudy - 22.2 1006.6 28.0
02/06:40am SW 11 19 - - - - 5 Partly cloudy - 23.4 1007.2 13.2
02/06:32am WSW 11 23 - - - - 10 Partly cloudy - 25.4 1006.9 10.4
02/06:30am WSW 10 23 - - - - 10 Partly cloudy - 26.2 1006.6 10.4
02/06:00am WNW 9 12 - - - - 10 Cloudy Rain 27.8 1005.4 10.2
02/05:30am WNW 9 14 - - - - 10 Partly cloudy - 28.2 1005.1 9.8
02/05:00am WNW 10 15 - - - - 10 Partly cloudy - 28.1 1004.8 9.8
02/04:30am WNW 9 15 - - - - 10 Partly cloudy - 28.1 1004.6 9.8
02/04:00am WNW 9 15 - - - - 10 Partly cloudy - 27.9 1004.7 9.8
02/03:30am WNW 8 11 - - - - 10 Partly cloudy - 27.7 1004.8 9.8
02/03:29am WNW 8 11 - - - - 10 Partly cloudy - 27.7 1004.8 9.8
02/03:16am WNW 9 14 - - - - 10 Partly cloudy - 27.7 1004.8 9.8
02/03:00am WNW 9 12 - - - - 10 Cloudy - 27.7 1004.7 9.8
02/02:56am WNW 10 12 - - - - 10 Partly cloudy - 27.7 1004.7 9.8

Other formats

Comma delimited format used in spreadsheet applications
http://www.bom.gov.au/fwo/IDQ60701/IDQ60701.94170.axf

JavaScript Object Notation format (JSON) in row-major order
http://www.bom.gov.au/fwo/IDQ60701/IDQ60701.94170.json

Data quality

Most of these data are generated automatically and are frequently updated. Quality checks on data are not normally performed. It is possible for incorrect values to appear. Refer to information at About Latest Weather Observations and please check the disclaimer before using these data.